Time;durP1;ratioP1;P1;durP2;ratioP2;P2;SDS_P1;SDS_P2;PMS_P1;PMS_P2;Temp;Humidity;BMP_temperature;BMP_pressure;BME280_temperature;BME280_humidity;BME280_pressure;Samples;Min_cycle;Max_cycle;Signal;HPM_P1;HPM_P2
2023/02/18 00:01:08;;;;;;;4.90;3.40;;;;;;;;;;5075443;28;20579;-86
2023/02/18 00:03:35;;;;;;;4.63;3.55;;;;;;;;;;5075399;28;20299;-87
2023/02/18 00:06:14;;;;;;;3.50;2.97;;;;;;;;;;5076629;28;20227;-87
2023/02/18 00:08:42;;;;;;;3.47;3.17;;;;;;;;;;5073832;28;20623;-87
2023/02/18 00:11:10;;;;;;;3.50;3.20;;;;;;;;;;5075387;28;20304;-86
2023/02/18 00:13:38;;;;;;;5.35;3.78;;;;;;;;;;5075030;28;20304;-86
2023/02/18 00:16:07;;;;;;;3.05;2.65;;;;;;;;;;5075442;28;20640;-86
2023/02/18 00:18:36;;;;;;;2.10;1.90;;;;;;;;;;5074394;28;20231;-87
2023/02/18 00:21:05;;;;;;;3.13;2.83;;;;;;;;;;5075025;28;20280;-86
2023/02/18 00:23:34;;;;;;;4.35;2.92;;;;;;;;;;5074090;28;20315;-86
2023/02/18 00:26:04;;;;;;;3.30;2.97;;;;;;;;;;5074252;28;20208;-86
2023/02/18 00:28:32;;;;;;;3.53;2.58;;;;;;;;;;5055236;28;20224;-87
2023/02/18 00:30:59;;;;;;;4.45;3.50;;;;;;;;;;5054104;28;20201;-87
2023/02/18 00:33:27;;;;;;;2.80;2.13;;;;;;;;;;5054039;28;20317;-87
2023/02/18 00:36:03;;;;;;;3.03;2.53;;;;;;;;;;5054492;28;20644;-87
2023/02/18 00:38:30;;;;;;;1.85;1.75;;;;;;;;;;5053413;28;20657;-86
2023/02/18 00:41:00;;;;;;;4.63;2.47;;;;;;;;;;5054096;28;20297;-86
2023/02/18 00:43:28;;;;;;;3.20;2.88;;;;;;;;;;5054150;28;20213;-86
2023/02/18 00:45:55;;;;;;;4.80;3.25;;;;;;;;;;5054222;28;20289;-85
2023/02/18 00:48:23;;;;;;;3.17;2.30;;;;;;;;;;5053450;28;20201;-86
2023/02/18 00:50:50;;;;;;;1.92;1.80;;;;;;;;;;5053629;28;20232;-86
2023/02/18 00:53:18;;;;;;;3.03;2.83;;;;;;;;;;5053667;28;20312;-86
2023/02/18 00:55:47;;;;;;;3.75;2.83;;;;;;;;;;5053521;28;20638;-86
2023/02/18 00:58:17;;;;;;;4.03;2.70;;;;;;;;;;5069093;28;20224;-87
2023/02/18 01:00:45;;;;;;;3.40;2.83;;;;;;;;;;5077184;28;20200;-86
2023/02/18 01:03:13;;;;;;;3.17;2.55;;;;;;;;;;5077162;28;20224;-86
2023/02/18 01:05:42;;;;;;;2.97;2.60;;;;;;;;;;5077133;28;20201;-86
2023/02/18 01:08:11;;;;;;;4.28;3.13;;;;;;;;;;5075722;28;20859;-86
2023/02/18 01:10:45;;;;;;;4.43;2.80;;;;;;;;;;5077202;28;20221;-86
2023/02/18 01:13:13;;;;;;;4.60;3.03;;;;;;;;;;5078600;28;20315;-85
2023/02/18 01:15:43;;;;;;;2.95;2.75;;;;;;;;;;5078456;28;20311;-86
2023/02/18 01:18:11;;;;;;;4.20;2.70;;;;;;;;;;5077525;28;20224;-86
2023/02/18 01:20:41;;;;;;;4.57;2.45;;;;;;;;;;5077596;28;20676;-86
2023/02/18 01:23:09;;;;;;;5.32;2.80;;;;;;;;;;5077587;28;20732;-86
2023/02/18 01:25:37;;;;;;;3.00;2.47;;;;;;;;;;5077316;28;20726;-87
2023/02/18 01:28:05;;;;;;;3.90;2.47;;;;;;;;;;5076516;28;20201;-85
2023/02/18 01:30:33;;;;;;;3.22;2.92;;;;;;;;;;5077503;28;20288;-87
2023/02/18 01:33:02;;;;;;;2.45;2.22;;;;;;;;;;5077276;28;20646;-86
2023/02/18 01:35:30;;;;;;;3.67;2.72;;;;;;;;;;5077612;28;20304;-86
2023/02/18 01:37:58;;;;;;;2.05;1.92;;;;;;;;;;5076851;28;20950;-86
2023/02/18 01:40:28;;;;;;;4.47;1.70;;;;;;;;;;5077175;28;20569;-84
2023/02/18 01:42:56;;;;;;;1.60;1.50;;;;;;;;;;5077166;28;20220;-87
2023/02/18 01:46:08;;;;;;;2.00;1.90;;;;;;;;;;5077441;28;20677;-86
2023/02/18 01:48:41;;;;;;;2.85;2.50;;;;;;;;;;5079723;28;20181;-87
2023/02/18 01:51:14;;;;;;;2.55;1.83;;;;;;;;;;5099664;28;20228;-87
2023/02/18 01:53:48;;;;;;;1.83;1.73;;;;;;;;;;5099518;28;20204;-87
2023/02/18 01:56:23;;;;;;;2.40;2.20;;;;;;;;;;5099564;28;20252;-86
2023/02/18 01:58:51;;;;;;;3.72;2.55;;;;;;;;;;5078916;28;20193;-86
2023/02/18 02:01:19;;;;;;;2.55;2.30;;;;;;;;;;5067176;28;20288;-86
2023/02/18 02:03:48;;;;;;;2.00;1.90;;;;;;;;;;5060062;28;20256;-87
2023/02/18 02:06:21;;;;;;;1.80;1.60;;;;;;;;;;5060424;28;20290;-86
2023/02/18 02:08:51;;;;;;;2.50;2.30;;;;;;;;;;5058277;28;20292;-86
2023/02/18 02:11:29;;;;;;;2.17;1.50;;;;;;;;;;5059070;28;20241;-86
2023/02/18 02:14:15;;;;;;;1.83;1.73;;;;;;;;;;5060081;28;20312;-87
2023/02/18 02:16:49;;;;;;;1.90;1.80;;;;;;;;;;5059711;28;20237;-87
2023/02/18 02:20:04;;;;;;;1.80;1.70;;;;;;;;;;5058753;28;20265;-87
2023/02/18 02:23:33;;;;;;;2.28;1.70;;;;;;;;;;5058924;28;20293;-86
2023/02/18 02:26:35;;;;;;;1.52;1.42;;;;;;;;;;5059028;28;20227;-86
2023/02/18 02:29:41;;;;;;;3.22;1.95;;;;;;;;;;5058067;28;20207;-86
2023/02/18 02:32:59;;;;;;;2.78;2.53;;;;;;;;;;5059457;28;20257;-86
2023/02/18 02:35:29;;;;;;;1.85;1.50;;;;;;;;;;5058516;28;20265;-87
2023/02/18 02:38:03;;;;;;;1.88;1.77;;;;;;;;;;5058051;28;20616;-86
2023/02/18 02:40:37;;;;;;;1.73;1.63;;;;;;;;;;5058160;28;20272;-86
2023/02/18 02:43:10;;;;;;;2.17;1.98;;;;;;;;;;5057664;28;20306;-86
2023/02/18 02:45:49;;;;;;;1.60;1.50;;;;;;;;;;5057453;28;20285;-85
2023/02/18 02:48:27;;;;;;;2.67;1.95;;;;;;;;;;5056403;28;20201;-86
2023/02/18 02:51:04;;;;;;;1.60;1.50;;;;;;;;;;5057276;28;20193;-86
2023/02/18 02:53:35;;;;;;;1.55;1.45;;;;;;;;;;5056717;28;20256;-85
2023/02/18 02:56:03;;;;;;;1.30;1.20;;;;;;;;;;5056421;28;20255;-85
2023/02/18 02:58:31;;;;;;;1.80;1.70;;;;;;;;;;5074120;28;20296;-86
2023/02/18 03:01:23;;;;;;;1.40;1.38;;;;;;;;;;5076172;28;20199;-85
2023/02/18 03:04:21;;;;;;;1.70;1.60;;;;;;;;;;5092878;22;20875;-80
2023/02/18 03:07:19;;;;;;;1.30;1.20;;;;;;;;;;5053160;28;20202;-80
2023/02/18 03:10:05;;;;;;;1.92;1.73;;;;;;;;;;5051205;28;20200;-80
2023/02/18 03:12:39;;;;;;;1.73;1.58;;;;;;;;;;5052883;28;20205;-80
2023/02/18 03:15:14;;;;;;;1.40;1.30;;;;;;;;;;5052784;28;20230;-80
2023/02/18 03:17:48;;;;;;;1.25;1.17;;;;;;;;;;5052851;28;20205;-81
2023/02/18 03:20:22;;;;;;;1.65;1.52;;;;;;;;;;5052135;28;20217;-80
2023/02/18 03:22:52;;;;;;;2.30;2.17;;;;;;;;;;5053579;28;20223;-80
2023/02/18 03:25:20;;;;;;;1.60;1.50;;;;;;;;;;5068250;28;20314;-80
2023/02/18 03:27:51;;;;;;;1.73;1.63;;;;;;;;;;5068782;28;20328;-81
2023/02/18 03:30:23;;;;;;;2.60;2.08;;;;;;;;;;5067766;28;20197;-80
2023/02/18 03:32:55;;;;;;;1.67;1.58;;;;;;;;;;5074076;28;20201;-80
2023/02/18 03:35:22;;;;;;;1.70;1.60;;;;;;;;;;5074584;28;20229;-80
2023/02/18 03:37:59;;;;;;;2.10;2.00;;;;;;;;;;5074388;28;20201;-81
2023/02/18 03:40:28;;;;;;;1.67;1.58;;;;;;;;;;5074016;28;20196;-80
2023/02/18 03:42:56;;;;;;;2.33;2.20;;;;;;;;;;5073865;28;20208;-80
2023/02/18 03:45:23;;;;;;;2.80;2.47;;;;;;;;;;5074023;28;20221;-80
2023/02/18 03:47:51;;;;;;;1.92;1.83;;;;;;;;;;5073964;28;20223;-81
2023/02/18 03:50:18;;;;;;;2.80;2.60;;;;;;;;;;5072868;28;20292;-81
2023/02/18 03:52:46;;;;;;;2.60;2.40;;;;;;;;;;5073291;28;20200;-81
2023/02/18 03:55:15;;;;;;;2.05;1.88;;;;;;;;;;5073294;28;20216;-79
2023/02/18 03:57:42;;;;;;;2.08;1.90;;;;;;;;;;5061271;28;20228;-80
2023/02/18 04:00:11;;;;;;;2.40;2.25;;;;;;;;;;5052804;28;20300;-81
2023/02/18 04:02:39;;;;;;;2.30;2.10;;;;;;;;;;5053029;28;20211;-80
2023/02/18 04:05:07;;;;;;;2.15;1.98;;;;;;;;;;5053016;28;20229;-80
2023/02/18 04:07:35;;;;;;;2.42;2.22;;;;;;;;;;5053184;28;20212;-80
2023/02/18 04:10:02;;;;;;;1.95;1.85;;;;;;;;;;5051195;28;20206;-80
2023/02/18 04:12:31;;;;;;;2.70;2.50;;;;;;;;;;5052942;28;20197;-80
2023/02/18 04:14:59;;;;;;;2.67;2.47;;;;;;;;;;5053376;28;20781;-80
2023/02/18 04:17:26;;;;;;;2.38;2.25;;;;;;;;;;5052915;28;20235;-80
2023/02/18 04:19:54;;;;;;;2.53;2.33;;;;;;;;;;5052733;28;20288;-80
2023/02/18 04:22:21;;;;;;;1.92;1.83;;;;;;;;;;5052919;28;20208;-80
2023/02/18 04:24:48;;;;;;;2.08;1.98;;;;;;;;;;5052664;28;20240;-80
2023/02/18 04:27:16;;;;;;;2.10;1.90;;;;;;;;;;5052475;28;20216;-81
2023/02/18 04:29:45;;;;;;;2.00;1.90;;;;;;;;;;5052184;28;20205;-81
2023/02/18 04:32:12;;;;;;;1.63;1.52;;;;;;;;;;5053100;28;20208;-80
2023/02/18 04:34:40;;;;;;;2.40;2.20;;;;;;;;;;5051621;28;20232;-80
2023/02/18 04:37:07;;;;;;;2.28;2.08;;;;;;;;;;5054113;28;20316;-80
2023/02/18 04:39:35;;;;;;;2.15;1.73;;;;;;;;;;5058153;28;20215;-79
2023/02/18 04:42:07;;;;;;;2.40;1.90;;;;;;;;;;5055527;28;20201;-80
2023/02/18 04:44:35;;;;;;;1.95;1.85;;;;;;;;;;5052420;28;20230;-80
2023/02/18 04:47:04;;;;;;;2.30;2.10;;;;;;;;;;5052996;28;20208;-80
2023/02/18 04:49:31;;;;;;;2.00;1.90;;;;;;;;;;5051765;28;20586;-80
2023/02/18 04:51:59;;;;;;;2.35;2.15;;;;;;;;;;5052610;28;20197;-81
2023/02/18 04:54:26;;;;;;;2.60;1.77;;;;;;;;;;5052229;28;20221;-81
2023/02/18 04:56:54;;;;;;;2.45;2.25;;;;;;;;;;5052138;28;20989;-81
2023/02/18 04:59:21;;;;;;;1.80;1.70;;;;;;;;;;5052232;28;20239;-80
2023/02/18 05:01:49;;;;;;;2.65;2.45;;;;;;;;;;5052067;28;20205;-80
2023/02/18 05:04:18;;;;;;;2.22;2.03;;;;;;;;;;5051486;28;20324;-80
2023/02/18 05:06:45;;;;;;;2.72;2.53;;;;;;;;;;5051631;28;20202;-80
2023/02/18 05:09:13;;;;;;;1.73;1.63;;;;;;;;;;5050766;28;20685;-80
2023/02/18 05:11:40;;;;;;;2.40;2.20;;;;;;;;;;5051872;28;20209;-80
2023/02/18 05:14:08;;;;;;;2.28;2.13;;;;;;;;;;5052343;28;20772;-81
2023/02/18 05:16:35;;;;;;;2.15;2.00;;;;;;;;;;5051826;28;20227;-79
2023/02/18 05:19:03;;;;;;;2.85;2.65;;;;;;;;;;5051439;28;20208;-80
2023/02/18 05:21:32;;;;;;;2.42;2.08;;;;;;;;;;5051886;28;20208;-80
2023/02/18 05:24:00;;;;;;;2.30;2.10;;;;;;;;;;5052447;28;20248;-80
2023/02/18 05:26:27;;;;;;;2.30;2.10;;;;;;;;;;5051403;28;20679;-79
2023/02/18 05:28:56;;;;;;;2.88;2.67;;;;;;;;;;5050544;28;20194;-80
2023/02/18 05:31:23;;;;;;;1.90;1.80;;;;;;;;;;5051766;28;20649;-80
2023/02/18 05:33:51;;;;;;;3.13;1.90;;;;;;;;;;5051222;28;20684;-81
2023/02/18 05:36:18;;;;;;;2.42;2.22;;;;;;;;;;5051618;28;20292;-79
2023/02/18 05:38:47;;;;;;;2.72;2.53;;;;;;;;;;5050218;28;20230;-81
2023/02/18 05:41:14;;;;;;;3.05;2.75;;;;;;;;;;5051308;28;20281;-81
2023/02/18 05:46:27;;;;;;;3.35;3.05;;;;;;;;;;5054262;28;20340;-81
2023/02/18 05:48:54;;;;;;;2.85;2.55;;;;;;;;;;5054782;28;20202;-82
2023/02/18 05:51:22;;;;;;;2.63;2.08;;;;;;;;;;5054949;28;20277;-81
2023/02/18 05:53:50;;;;;;;2.33;2.13;;;;;;;;;;5054965;28;20313;-81
2023/02/18 05:56:18;;;;;;;1.58;1.48;;;;;;;;;;5055388;28;20208;-81
2023/02/18 05:58:46;;;;;;;2.00;1.90;;;;;;;;;;5054187;28;20316;-81
2023/02/18 06:01:13;;;;;;;2.42;2.22;;;;;;;;;;5055310;28;20764;-82
2023/02/18 06:03:41;;;;;;;2.40;2.20;;;;;;;;;;5054847;28;20296;-81
2023/02/18 06:06:08;;;;;;;2.17;2.08;;;;;;;;;;5054551;28;20201;-81
2023/02/18 06:08:36;;;;;;;2.55;2.35;;;;;;;;;;5053592;28;20280;-81
2023/02/18 06:11:05;;;;;;;2.42;2.22;;;;;;;;;;5054689;28;20206;-80
2023/02/18 06:13:33;;;;;;;2.05;1.90;;;;;;;;;;5054870;28;20640;-81
2023/02/18 06:16:00;;;;;;;2.03;1.92;;;;;;;;;;5054554;28;20205;-81
2023/02/18 06:18:28;;;;;;;3.15;2.50;;;;;;;;;;5054006;28;20257;-81
2023/02/18 06:20:56;;;;;;;1.65;1.55;;;;;;;;;;5055277;28;20212;-80
2023/02/18 06:23:24;;;;;;;1.77;1.67;;;;;;;;;;5054710;28;20212;-81
2023/02/18 06:25:51;;;;;;;2.20;2.00;;;;;;;;;;5055057;28;20193;-81
2023/02/18 06:28:20;;;;;;;2.40;2.20;;;;;;;;;;5054337;28;20300;-81
2023/02/18 06:30:47;;;;;;;1.48;1.38;;;;;;;;;;5054529;28;20697;-81
2023/02/18 06:33:15;;;;;;;2.00;1.90;;;;;;;;;;5054840;28;20205;-81
2023/02/18 06:35:43;;;;;;;1.85;1.75;;;;;;;;;;5054892;28;20229;-80
2023/02/18 06:38:10;;;;;;;1.65;1.55;;;;;;;;;;5054474;28;20229;-82
2023/02/18 06:40:38;;;;;;;1.10;1.10;;;;;;;;;;5054692;28;20209;-81
2023/02/18 06:43:05;;;;;;;1.15;1.15;;;;;;;;;;5055789;28;20229;-81
2023/02/18 06:45:34;;;;;;;1.20;1.10;;;;;;;;;;5054143;28;20309;-81
2023/02/18 06:48:01;;;;;;;1.40;1.30;;;;;;;;;;5054324;28;20288;-82
2023/02/18 06:50:29;;;;;;;1.10;1.00;;;;;;;;;;5054544;28;20240;-81
2023/02/18 06:52:56;;;;;;;0.90;0.90;;;;;;;;;;5054325;28;20268;-81
2023/02/18 06:55:24;;;;;;;0.80;0.80;;;;;;;;;;5055011;28;20313;-81
2023/02/18 06:57:51;;;;;;;0.75;0.75;;;;;;;;;;5054189;28;20692;-80
2023/02/18 07:00:21;;;;;;;0.70;0.70;;;;;;;;;;5054419;28;20212;-82
2023/02/18 07:02:50;;;;;;;1.00;1.00;;;;;;;;;;5054535;28;20201;-81
2023/02/18 07:05:18;;;;;;;0.77;0.77;;;;;;;;;;5054234;28;20316;-82
2023/02/18 07:07:46;;;;;;;0.60;0.60;;;;;;;;;;5054346;28;20639;-81
2023/02/18 07:10:13;;;;;;;1.00;1.00;;;;;;;;;;5053128;28;20209;-80
2023/02/18 07:12:41;;;;;;;0.63;0.63;;;;;;;;;;5054792;28;20285;-83
2023/02/18 07:15:09;;;;;;;0.57;0.57;;;;;;;;;;5054636;28;20248;-81
2023/02/18 07:17:37;;;;;;;0.30;0.30;;;;;;;;;;5058051;28;20193;-82
2023/02/18 07:20:08;;;;;;;0.60;0.60;;;;;;;;;;5073081;28;20211;-81
2023/02/18 07:22:35;;;;;;;0.60;0.60;;;;;;;;;;5074044;28;20688;-82
2023/02/18 07:25:03;;;;;;;0.70;0.60;;;;;;;;;;5073826;28;20652;-80
2023/02/18 07:27:30;;;;;;;0.40;0.40;;;;;;;;;;5063972;28;20293;-80
2023/02/18 07:29:58;;;;;;;0.57;0.57;;;;;;;;;;5053708;28;20232;-80
2023/02/18 07:32:25;;;;;;;0.40;0.40;;;;;;;;;;5053654;28;20212;-82
2023/02/18 07:34:53;;;;;;;0.32;0.32;;;;;;;;;;5053342;28;20308;-81
2023/02/18 07:37:22;;;;;;;0.30;0.30;;;;;;;;;;5053611;28;20300;-82
2023/02/18 07:39:49;;;;;;;0.43;0.43;;;;;;;;;;5052466;28;20240;-82
2023/02/18 07:42:17;;;;;;;0.43;0.43;;;;;;;;;;5054138;28;20736;-82
2023/02/18 07:44:44;;;;;;;0.20;0.20;;;;;;;;;;5053513;28;20312;-81
2023/02/18 07:47:18;;;;;;;0.30;0.25;;;;;;;;;;5053772;28;20273;-81
2023/02/18 07:49:46;;;;;;;0.40;0.32;;;;;;;;;;5053142;28;20206;-81
2023/02/18 07:52:14;;;;;;;0.30;0.30;;;;;;;;;;5053609;28;20681;-82
2023/02/18 07:54:43;;;;;;;0.30;0.30;;;;;;;;;;5053828;28;20217;-81
2023/02/18 07:57:10;;;;;;;0.50;0.50;;;;;;;;;;5060028;28;20648;-81
2023/02/18 07:59:38;;;;;;;0.40;0.40;;;;;;;;;;5061260;28;20221;-81
2023/02/18 08:02:06;;;;;;;0.13;0.13;;;;;;;;;;5056570;28;20202;-81
2023/02/18 08:04:34;;;;;;;0.20;0.20;;;;;;;;;;5053596;28;20233;-81
2023/02/18 08:07:01;;;;;;;0.40;0.40;;;;;;;;;;5053920;28;20201;-81
2023/02/18 08:09:29;;;;;;;0.30;0.30;;;;;;;;;;5056924;28;20202;-83
2023/02/18 08:11:57;;;;;;;0.30;0.30;;;;;;;;;;5061221;28;20285;-83
2023/02/18 08:14:25;;;;;;;0.38;0.38;;;;;;;;;;5059611;28;20315;-82
2023/02/18 08:16:53;;;;;;;0.10;0.10;;;;;;;;;;5059361;28;20209;-82
2023/02/18 08:19:21;;;;;;;0.35;0.35;;;;;;;;;;5058848;28;20227;-81
2023/02/18 08:21:48;;;;;;;0.10;0.10;;;;;;;;;;5059313;28;20308;-82
2023/02/18 08:24:16;;;;;;;0.20;0.20;;;;;;;;;;5058543;28;20665;-81
2023/02/18 08:26:43;;;;;;;0.43;0.43;;;;;;;;;;5057888;28;20237;-81
2023/02/18 08:29:12;;;;;;;0.30;0.30;;;;;;;;;;5057093;28;20233;-82
2023/02/18 08:31:39;;;;;;;0.20;0.20;;;;;;;;;;5052851;28;20295;-80
2023/02/18 08:34:08;;;;;;;0.20;0.20;;;;;;;;;;5052499;28;20221;-80
2023/02/18 08:36:36;;;;;;;0.30;0.30;;;;;;;;;;5052325;28;20206;-82
2023/02/18 08:39:04;;;;;;;0.40;0.40;;;;;;;;;;5052154;28;20233;-80
2023/02/18 08:41:32;;;;;;;0.30;0.30;;;;;;;;;;5052295;28;20352;-79
2023/02/18 08:43:59;;;;;;;0.77;0.40;;;;;;;;;;5051820;28;20221;-79
2023/02/18 08:46:28;;;;;;;0.20;0.20;;;;;;;;;;5052019;28;20201;-80
2023/02/18 08:48:55;;;;;;;0.20;0.20;;;;;;;;;;5049283;28;20599;-80
2023/02/18 08:51:24;;;;;;;0.40;0.38;;;;;;;;;;5052145;28;20692;-79
2023/02/18 08:53:52;;;;;;;0.25;0.25;;;;;;;;;;5051287;28;20225;-80
2023/02/18 08:56:19;;;;;;;0.20;0.20;;;;;;;;;;5050868;28;20734;-81
2023/02/18 08:58:47;;;;;;;0.30;0.30;;;;;;;;;;5050720;28;20289;-80
2023/02/18 09:01:14;;;;;;;0.30;0.30;;;;;;;;;;5050684;28;20212;-79
2023/02/18 09:03:43;;;;;;;0.10;0.10;;;;;;;;;;5050547;28;20292;-79
2023/02/18 09:08:39;;;;;;;0.20;0.20;;;;;;;;;;5050502;28;20213;-79
2023/02/18 09:11:07;;;;;;;0.20;0.20;;;;;;;;;;5052587;28;20285;-79
2023/02/18 09:13:34;;;;;;;0.22;0.22;;;;;;;;;;5052269;28;20300;-77
2023/02/18 09:16:06;;;;;;;0.20;0.20;;;;;;;;;;5051754;28;20304;-78
2023/02/18 09:18:35;;;;;;;0.30;0.30;;;;;;;;;;5050274;28;20346;-79
2023/02/18 09:21:08;;;;;;;0.30;0.30;;;;;;;;;;5053565;28;20232;-78
2023/02/18 09:23:36;;;;;;;0.30;0.30;;;;;;;;;;5056235;28;20259;-79
2023/02/18 09:26:06;;;;;;;0.20;0.20;;;;;;;;;;5055614;28;20305;-78
2023/02/18 09:28:33;;;;;;;0.32;0.32;;;;;;;;;;5034186;28;20206;-78
2023/02/18 09:31:06;;;;;;;0.20;0.20;;;;;;;;;;5034303;28;20706;-78
2023/02/18 09:33:36;;;;;;;0.40;0.40;;;;;;;;;;5034685;28;20202;-78
2023/02/18 09:36:06;;;;;;;0.30;0.30;;;;;;;;;;5034567;28;20757;-79
2023/02/18 09:38:34;;;;;;;0.20;0.20;;;;;;;;;;5033437;28;20293;-79
2023/02/18 09:41:04;;;;;;;0.20;0.20;;;;;;;;;;5034117;28;20222;-80
2023/02/18 09:43:36;;;;;;;0.30;0.30;;;;;;;;;;5034331;28;20211;-78
2023/02/18 09:46:05;;;;;;;0.30;0.30;;;;;;;;;;5034377;28;20228;-81
2023/02/18 09:48:35;;;;;;;0.30;0.30;;;;;;;;;;5033835;28;20285;-77
2023/02/18 09:51:04;;;;;;;0.30;0.30;;;;;;;;;;5034063;28;20209;-79
2023/02/18 09:53:31;;;;;;;0.20;0.20;;;;;;;;;;5034103;28;20588;-80
2023/02/18 09:56:00;;;;;;;0.35;0.35;;;;;;;;;;5033396;28;20222;-77
2023/02/18 09:58:30;;;;;;;0.30;0.30;;;;;;;;;;5033112;28;20317;-79
2023/02/18 10:01:10;;;;;;;2.17;0.75;;;;;;;;;;5033405;28;20226;-80
2023/02/18 10:03:39;;;;;;;0.50;0.50;;;;;;;;;;5033494;28;20198;-78
2023/02/18 10:06:11;;;;;;;1.42;1.00;;;;;;;;;;5034097;28;20372;-79
2023/02/18 10:08:43;;;;;;;0.50;0.50;;;;;;;;;;5033139;28;20202;-79
2023/02/18 10:11:15;;;;;;;0.70;0.70;;;;;;;;;;5033567;28;20580;-79
2023/02/18 10:13:43;;;;;;;0.70;0.70;;;;;;;;;;5033649;28;20686;-79
2023/02/18 10:16:18;;;;;;;0.50;0.50;;;;;;;;;;5033147;28;20233;-79
2023/02/18 10:18:48;;;;;;;0.35;0.35;;;;;;;;;;5032696;28;20198;-79
2023/02/18 10:21:21;;;;;;;0.30;0.30;;;;;;;;;;5033526;28;20291;-79
2023/02/18 10:23:56;;;;;;;0.45;0.45;;;;;;;;;;5033743;28;20206;-79
2023/02/18 10:26:23;;;;;;;0.60;0.60;;;;;;;;;;5033709;28;20252;-80
2023/02/18 10:28:51;;;;;;;0.60;0.60;;;;;;;;;;5032102;28;20216;-80
2023/02/18 10:31:22;;;;;;;0.60;0.60;;;;;;;;;;5032945;28;20625;-79
2023/02/18 10:33:59;;;;;;;0.63;0.63;;;;;;;;;;5033078;28;20233;-80
2023/02/18 10:36:33;;;;;;;0.60;0.60;;;;;;;;;;5033663;28;20603;-80
2023/02/18 10:39:23;;;;;;;0.70;0.70;;;;;;;;;;5032664;28;20202;-80
2023/02/18 10:41:57;;;;;;;1.00;1.00;;;;;;;;;;5033581;28;20240;-80
2023/02/18 10:44:34;;;;;;;0.57;0.57;;;;;;;;;;5033483;28;20226;-78
2023/02/18 10:47:20;;;;;;;0.82;0.82;;;;;;;;;;5033632;28;20209;-79
2023/02/18 10:49:58;;;;;;;1.25;0.90;;;;;;;;;;5032646;28;20206;-80
2023/02/18 10:52:30;;;;;;;0.70;0.70;;;;;;;;;;5033278;28;20687;-79
2023/02/18 10:55:04;;;;;;;0.70;0.70;;;;;;;;;;5033171;28;20222;-79
2023/02/18 10:57:33;;;;;;;0.70;0.70;;;;;;;;;;5033143;28;20210;-79
2023/02/18 11:00:11;;;;;;;0.52;0.52;;;;;;;;;;5031975;28;20213;-80
2023/02/18 11:02:40;;;;;;;0.50;0.50;;;;;;;;;;5032692;28;20212;-80
2023/02/18 11:05:20;;;;;;;0.60;0.60;;;;;;;;;;5032791;28;20232;-79
2023/02/18 11:07:53;;;;;;;0.60;0.60;;;;;;;;;;5032970;28;20221;-79
2023/02/18 11:10:25;;;;;;;0.60;0.60;;;;;;;;;;5032440;28;20198;-81
2023/02/18 11:12:58;;;;;;;0.50;0.50;;;;;;;;;;5033089;28;20204;-79
2023/02/18 11:15:27;;;;;;;1.17;0.70;;;;;;;;;;5033439;28;20691;-79
2023/02/18 11:17:58;;;;;;;0.57;0.57;;;;;;;;;;5034546;28;20208;-77
2023/02/18 11:20:30;;;;;;;0.80;0.80;;;;;;;;;;5037727;28;20265;-78
2023/02/18 11:23:16;;;;;;;0.95;0.90;;;;;;;;;;5041073;28;20213;-81
2023/02/18 11:25:59;;;;;;;0.80;0.80;;;;;;;;;;5033808;28;20222;-81
2023/02/18 11:28:41;;;;;;;2.15;1.05;;;;;;;;;;5033053;28;20206;-81
2023/02/18 11:31:09;;;;;;;0.93;0.90;;;;;;;;;;5031198;28;20206;-80
2023/02/18 11:33:42;;;;;;;0.80;0.80;;;;;;;;;;5033049;28;20208;-81
2023/02/18 11:36:22;;;;;;;0.82;0.82;;;;;;;;;;5033028;28;20230;-80
2023/02/18 11:38:54;;;;;;;0.60;0.60;;;;;;;;;;5032384;28;20209;-80
2023/02/18 11:41:30;;;;;;;0.90;0.90;;;;;;;;;;5032830;28;20638;-79
2023/02/18 11:43:57;;;;;;;0.57;0.50;;;;;;;;;;5032095;28;20209;-80
2023/02/18 11:46:28;;;;;;;0.70;0.70;;;;;;;;;;5032654;28;20225;-80
2023/02/18 11:48:55;;;;;;;0.70;0.70;;;;;;;;;;5031887;28;20218;-80
2023/02/18 11:51:27;;;;;;;0.60;0.60;;;;;;;;;;5032447;28;20198;-80
2023/02/18 11:54:00;;;;;;;0.90;0.90;;;;;;;;;;5032307;28;20670;-79
2023/02/18 11:56:31;;;;;;;1.10;1.10;;;;;;;;;;5032518;28;20984;-81
2023/02/18 11:59:00;;;;;;;1.23;0.80;;;;;;;;;;5032760;28;20206;-81
2023/02/18 12:01:38;;;;;;;0.85;0.85;;;;;;;;;;5032146;28;20225;-80
2023/02/18 12:04:12;;;;;;;0.88;0.68;;;;;;;;;;5032053;28;20203;-81
2023/02/18 12:06:46;;;;;;;0.60;0.60;;;;;;;;;;5031553;28;20241;-81
2023/02/18 12:09:25;;;;;;;0.80;0.80;;;;;;;;;;5031253;28;20213;-80
2023/02/18 12:11:55;;;;;;;0.70;0.70;;;;;;;;;;5031820;28;20194;-80
2023/02/18 12:14:24;;;;;;;0.82;0.82;;;;;;;;;;5032060;28;20194;-80
2023/02/18 12:17:25;;;;;;;0.70;0.70;;;;;;;;;;5031976;28;20237;-80
2023/02/18 12:20:13;;;;;;;0.85;0.70;;;;;;;;;;5030516;28;20670;-79
2023/02/18 12:22:44;;;;;;;0.60;0.60;;;;;;;;;;5032240;28;20232;-80
2023/02/18 12:25:26;;;;;;;0.60;0.60;;;;;;;;;;5034262;28;20586;-80
2023/02/18 12:28:08;;;;;;;0.73;0.73;;;;;;;;;;5031242;28;20202;-79
2023/02/18 12:31:12;;;;;;;0.70;0.70;;;;;;;;;;5029839;28;20202;-80
2023/02/18 12:33:51;;;;;;;0.80;0.50;;;;;;;;;;5031727;28;20210;-80
2023/02/18 12:36:32;;;;;;;0.65;0.65;;;;;;;;;;5031792;28;20228;-80
2023/02/18 12:39:11;;;;;;;0.70;0.70;;;;;;;;;;5030622;28;20202;-80
2023/02/18 12:41:57;;;;;;;1.17;0.70;;;;;;;;;;5031343;28;20217;-80
2023/02/18 12:44:42;;;;;;;0.80;0.80;;;;;;;;;;5031365;28;20206;-80
2023/02/18 12:47:42;;;;;;;0.60;0.60;;;;;;;;;;5031405;28;20212;-81
2023/02/18 12:50:48;;;;;;;0.43;0.43;;;;;;;;;;5011907;28;20590;-80
2023/02/18 12:53:49;;;;;;;0.52;0.52;;;;;;;;;;5031366;28;20562;-79
2023/02/18 12:56:38;;;;;;;0.50;0.50;;;;;;;;;;5031746;28;20230;-81
2023/02/18 12:59:14;;;;;;;0.50;0.50;;;;;;;;;;5014852;28;20209;-81
2023/02/18 13:01:52;;;;;;;0.30;0.30;;;;;;;;;;5015455;28;20694;-79
2023/02/18 13:04:33;;;;;;;0.30;0.30;;;;;;;;;;5015765;28;20217;-79
2023/02/18 13:07:36;;;;;;;0.70;0.57;;;;;;;;;;5015849;28;20207;-81
2023/02/18 13:10:46;;;;;;;0.50;0.50;;;;;;;;;;5015604;28;20260;-80
2023/02/18 13:13:18;;;;;;;0.40;0.38;;;;;;;;;;4969461;28;20229;-80
2023/02/18 13:15:51;;;;;;;0.40;0.40;;;;;;;;;;5015960;28;20793;-80
2023/02/18 13:18:22;;;;;;;0.50;0.50;;;;;;;;;;5014962;28;20690;-81
2023/02/18 13:20:52;;;;;;;0.77;0.63;;;;;;;;;;5016528;28;20199;-80
2023/02/18 13:23:23;;;;;;;0.40;0.40;;;;;;;;;;5016199;28;20223;-80
2023/02/18 13:25:55;;;;;;;0.50;0.50;;;;;;;;;;5015932;28;20249;-79
2023/02/18 13:28:29;;;;;;;0.90;0.40;;;;;;;;;;5030820;28;20218;-80
2023/02/18 13:31:18;;;;;;;0.75;0.50;;;;;;;;;;5033252;28;20206;-80
2023/02/18 13:33:50;;;;;;;0.40;0.40;;;;;;;;;;5035148;28;20204;-80
2023/02/18 13:36:36;;;;;;;0.38;0.38;;;;;;;;;;5037454;28;20222;-81
2023/02/18 13:39:07;;;;;;;0.30;0.30;;;;;;;;;;5034118;28;20313;-80
2023/02/18 13:41:41;;;;;;;0.40;0.40;;;;;;;;;;5035077;28;20210;-79
2023/02/18 13:44:25;;;;;;;0.68;0.45;;;;;;;;;;5035240;28;20202;-80
2023/02/18 13:46:56;;;;;;;0.28;0.28;;;;;;;;;;5034146;28;20198;-80
2023/02/18 13:49:25;;;;;;;0.38;0.38;;;;;;;;;;5034273;28;20202;-80
2023/02/18 13:51:54;;;;;;;0.50;0.50;;;;;;;;;;5035177;28;20580;-80
2023/02/18 13:54:26;;;;;;;0.50;0.50;;;;;;;;;;5035172;28;20217;-79
2023/02/18 13:56:57;;;;;;;0.40;0.40;;;;;;;;;;5034653;28;20207;-79
2023/02/18 13:59:33;;;;;;;0.40;0.40;;;;;;;;;;5034165;28;20206;-80
2023/02/18 14:02:32;;;;;;;0.40;0.40;;;;;;;;;;5032863;28;20783;-79
2023/02/18 14:05:20;;;;;;;0.47;0.47;;;;;;;;;;5033974;28;20276;-79
2023/02/18 14:07:51;;;;;;;0.50;0.50;;;;;;;;;;5033779;28;20205;-78
2023/02/18 14:10:33;;;;;;;0.30;0.30;;;;;;;;;;5033387;28;20320;-80
2023/02/18 14:13:24;;;;;;;0.50;0.50;;;;;;;;;;5034042;28;20199;-80
2023/02/18 14:16:00;;;;;;;0.50;0.50;;;;;;;;;;5033912;28;20230;-80
2023/02/18 14:19:01;;;;;;;2.83;2.35;;;;;;;;;;5033087;28;20228;-78
2023/02/18 14:21:41;;;;;;;3.88;3.05;;;;;;;;;;5024771;28;20705;-78
2023/02/18 14:24:12;;;;;;;2.80;2.55;;;;;;;;;;5033923;28;20202;-78
2023/02/18 14:26:48;;;;;;;0.75;0.75;;;;;;;;;;5033630;28;20316;-80
2023/02/18 14:29:27;;;;;;;0.40;0.40;;;;;;;;;;5030818;28;20690;-80
2023/02/18 14:32:00;;;;;;;1.35;1.25;;;;;;;;;;5033296;28;20674;-79
2023/02/18 14:34:52;;;;;;;0.88;0.88;;;;;;;;;;5033632;28;20207;-79
2023/02/18 14:38:08;;;;;;;0.22;0.22;;;;;;;;;;5033299;28;20202;-79
2023/02/18 14:41:22;;;;;;;0.40;0.40;;;;;;;;;;5033341;28;20202;-79
2023/02/18 14:44:14;;;;;;;0.60;0.60;;;;;;;;;;5017046;28;20226;-80
2023/02/18 14:46:57;;;;;;;0.70;0.70;;;;;;;;;;5044642;28;20724;-80
2023/02/18 14:49:40;;;;;;;0.82;0.82;;;;;;;;;;5033582;28;21000;-80
2023/02/18 14:52:16;;;;;;;0.68;0.68;;;;;;;;;;5034583;28;20208;-80
2023/02/18 14:54:43;;;;;;;0.75;0.75;;;;;;;;;;5034238;28;20194;-80
2023/02/18 14:57:17;;;;;;;0.80;0.80;;;;;;;;;;5033627;28;20726;-80
2023/02/18 14:59:45;;;;;;;1.33;0.80;;;;;;;;;;5032822;28;20281;-80
2023/02/18 15:02:22;;;;;;;0.63;0.63;;;;;;;;;;5033154;28;20315;-80
2023/02/18 15:07:22;;;;;;;0.57;0.57;;;;;;;;;;5050273;28;20267;-85
2023/02/18 15:09:53;;;;;;;0.68;0.68;;;;;;;;;;5053502;28;20205;-83
2023/02/18 15:12:23;;;;;;;0.50;0.50;;;;;;;;;;5054743;28;20284;-85
2023/02/18 15:14:53;;;;;;;0.60;0.60;;;;;;;;;;5054084;28;20212;-85
2023/02/18 15:17:26;;;;;;;0.50;0.50;;;;;;;;;;5054651;28;20681;-85
2023/02/18 15:19:55;;;;;;;0.45;0.45;;;;;;;;;;5052942;28;20756;-84
2023/02/18 15:22:26;;;;;;;0.47;0.47;;;;;;;;;;5040788;28;20212;-84
2023/02/18 15:24:55;;;;;;;0.52;0.52;;;;;;;;;;5033776;28;20213;-83